createdAt,value
2018-04-12T00:00:59.341Z,15.10
2018-04-12T00:03:27.392Z,15.10
2018-04-12T00:05:55.447Z,15.10
2018-04-12T00:08:23.513Z,15.00
2018-04-12T00:10:52.260Z,15.10
2018-04-12T00:13:20.319Z,15.10
2018-04-12T00:15:48.357Z,15.20
2018-04-12T00:18:16.418Z,15.20
2018-04-12T00:20:44.465Z,15.20
2018-04-12T00:23:12.529Z,15.10
2018-04-12T00:25:40.569Z,15.10
2018-04-12T00:28:08.647Z,15.10
2018-04-12T00:30:36.721Z,15.10
2018-04-12T00:33:04.820Z,15.10
2018-04-12T00:35:32.872Z,15.10
2018-04-12T00:38:01.689Z,15.20
2018-04-12T00:40:29.748Z,15.10
2018-04-12T00:42:57.804Z,15.20
2018-04-12T00:45:25.857Z,15.20
2018-04-12T00:47:53.911Z,15.10
2018-04-12T00:50:21.974Z,15.10
2018-04-12T00:52:50.024Z,15.10
2018-04-12T00:55:18.082Z,15.10
2018-04-12T00:57:46.132Z,15.20
2018-04-12T01:00:14.187Z,15.10
2018-04-12T01:02:42.248Z,14.90
2018-04-12T01:05:10.303Z,15.00
2018-04-12T01:07:38.357Z,14.90
2018-04-12T01:10:06.405Z,14.90
2018-04-12T01:12:34.464Z,14.90
2018-04-12T01:15:02.517Z,14.80
2018-04-12T01:17:30.579Z,14.70
2018-04-12T01:19:58.634Z,14.70
2018-04-12T01:22:26.688Z,14.60
2018-04-12T01:24:54.743Z,14.70
2018-04-12T01:27:22.804Z,14.60
2018-04-12T01:29:50.847Z,14.50
2018-04-12T01:32:18.908Z,14.60
2018-04-12T01:34:46.965Z,14.60
2018-04-12T01:37:15.040Z,14.50
2018-04-12T01:39:43.097Z,14.50
2018-04-12T01:42:11.152Z,14.50
2018-04-12T01:44:39.204Z,14.60
2018-04-12T01:47:07.269Z,14.40
2018-04-12T01:49:35.316Z,14.30
2018-04-12T01:52:03.380Z,14.40
2018-04-12T01:54:31.437Z,14.40
2018-04-12T01:56:59.492Z,14.20
2018-04-12T01:59:27.543Z,14.40
2018-04-12T02:01:55.590Z,14.40
2018-04-12T02:04:23.639Z,14.30
2018-04-12T02:06:52.254Z,14.20
2018-04-12T02:09:20.310Z,14.40
2018-04-12T02:11:48.361Z,14.50
2018-04-12T02:14:16.434Z,14.40
2018-04-12T02:16:44.484Z,14.30
2018-04-12T02:19:12.548Z,14.30
2018-04-12T02:21:40.602Z,14.20
2018-04-12T02:24:08.656Z,14.30
2018-04-12T02:26:36.703Z,14.30
2018-04-12T02:29:04.764Z,14.30
2018-04-12T02:31:32.816Z,14.30
2018-04-12T02:34:00.905Z,14.20
2018-04-12T02:36:28.969Z,14.10
2018-04-12T02:38:57.028Z,14.10
2018-04-12T02:41:25.081Z,13.90
2018-04-12T02:43:53.141Z,14.00
2018-04-12T02:46:21.202Z,13.90
2018-04-12T02:48:49.252Z,14.00
2018-04-12T02:51:17.322Z,14.00
2018-04-12T02:53:45.368Z,13.90
2018-04-12T02:56:13.430Z,13.80
2018-04-12T02:58:41.491Z,13.90
2018-04-12T03:01:09.536Z,13.90
2018-04-12T03:03:37.600Z,13.70
2018-04-12T03:06:05.694Z,13.70
2018-04-12T03:08:33.727Z,13.70
2018-04-12T03:11:01.772Z,13.60
2018-04-12T03:13:29.831Z,13.70
2018-04-12T03:15:57.885Z,13.60
2018-04-12T03:18:25.939Z,13.50
2018-04-12T03:20:53.990Z,13.50
2018-04-12T03:23:22.044Z,13.50
2018-04-12T03:25:50.089Z,13.40
2018-04-12T03:28:18.153Z,13.50
2018-04-12T03:30:46.209Z,13.50
2018-04-12T03:33:14.269Z,13.50
2018-04-12T03:35:42.316Z,13.40
2018-04-12T03:38:10.374Z,13.40
2018-04-12T03:40:38.425Z,13.30
2018-04-12T03:43:06.492Z,13.30
2018-04-12T03:45:34.544Z,13.20
2018-04-12T03:48:02.613Z,13.20
2018-04-12T03:50:30.671Z,13.20
2018-04-12T03:52:58.726Z,13.20
2018-04-12T03:55:26.776Z,13.30
2018-04-12T03:57:54.840Z,13.40
2018-04-12T04:00:22.896Z,13.40
2018-04-12T04:02:50.956Z,13.40
2018-04-12T04:05:19.007Z,13.40
2018-04-12T04:07:47.088Z,13.50
2018-04-12T04:10:15.145Z,13.60
2018-04-12T04:12:43.203Z,13.60
2018-04-12T04:15:28.744Z,13.70
2018-04-12T04:18:14.419Z,13.60
2018-04-12T04:21:00.212Z,13.70
2018-04-12T04:23:28.272Z,13.50
2018-04-12T04:25:56.329Z,13.50
2018-04-12T04:28:24.388Z,13.30
2018-04-12T04:30:52.436Z,13.30
2018-04-12T04:33:20.515Z,13.40
2018-04-12T04:35:48.565Z,13.30
2018-04-12T04:38:16.629Z,13.40
2018-04-12T04:40:44.684Z,13.30
2018-04-12T04:43:12.740Z,13.40
2018-04-12T04:45:40.796Z,13.30
2018-04-12T04:48:08.848Z,13.40
2018-04-12T04:50:36.899Z,13.40
2018-04-12T04:53:04.952Z,13.30
2018-04-12T04:55:33.013Z,13.40
2018-04-12T04:58:01.073Z,13.90
2018-04-12T05:00:29.137Z,14.60
2018-04-12T05:02:57.218Z,14.40
2018-04-12T05:05:25.275Z,14.10
2018-04-12T05:07:53.316Z,13.80
2018-04-12T05:10:21.380Z,13.70
2018-04-12T05:12:49.435Z,13.40
2018-04-12T05:15:17.499Z,13.40
2018-04-12T05:17:45.544Z,13.40
2018-04-12T05:20:14.422Z,13.40
2018-04-12T05:22:42.472Z,13.50
2018-04-12T05:25:10.707Z,13.60
2018-04-12T05:27:38.841Z,13.70
2018-04-12T05:30:06.922Z,13.80
2018-04-12T05:32:34.965Z,13.90
2018-04-12T05:35:03.037Z,13.90
2018-04-12T05:37:31.098Z,14.10
2018-04-12T05:39:59.156Z,14.10
2018-04-12T05:42:27.241Z,14.40
2018-04-12T05:44:55.297Z,14.50
2018-04-12T05:47:23.348Z,14.50
2018-04-12T05:49:52.292Z,14.70
2018-04-12T05:52:20.364Z,14.70
2018-04-12T05:54:48.427Z,14.80
2018-04-12T05:57:16.492Z,15.00
2018-04-12T05:59:44.536Z,15.00
2018-04-12T06:02:12.593Z,15.20
2018-04-12T06:04:40.668Z,15.20
2018-04-12T06:07:08.719Z,15.30
2018-04-12T06:09:36.775Z,15.40
2018-04-12T06:12:04.824Z,15.40
2018-04-12T06:14:32.873Z,15.40
2018-04-12T06:17:00.928Z,15.50
2018-04-12T06:19:29.001Z,15.60
2018-04-12T06:21:57.056Z,15.70
2018-04-12T06:24:25.112Z,15.70
2018-04-12T06:26:53.165Z,15.90
2018-04-12T06:29:21.261Z,15.80
2018-04-12T06:31:49.305Z,16.00
2018-04-12T06:34:17.352Z,16.00
2018-04-12T06:36:45.418Z,16.20
2018-04-12T06:39:13.504Z,16.40
2018-04-12T06:41:41.551Z,16.50
2018-04-12T06:44:09.620Z,16.60
2018-04-12T06:46:37.688Z,16.80
2018-04-12T06:49:05.768Z,16.80
2018-04-12T06:51:33.824Z,16.80
2018-04-12T06:54:03.266Z,17.10
2018-04-12T06:56:31.322Z,17.30
2018-04-12T06:58:59.420Z,17.40
2018-04-12T07:01:27.618Z,17.50
2018-04-12T07:03:55.673Z,17.50
2018-04-12T07:06:23.768Z,17.40
2018-04-12T07:08:53.022Z,17.50
2018-04-12T07:11:21.104Z,17.70
2018-04-12T07:13:49.218Z,17.80
2018-04-12T07:16:17.293Z,18.00
2018-04-12T07:18:45.725Z,18.00
2018-04-12T07:21:13.785Z,18.10
2018-04-12T07:23:41.829Z,18.10
2018-04-12T07:26:10.060Z,18.30
2018-04-12T07:28:38.144Z,18.50
2018-04-12T07:31:06.219Z,18.70
2018-04-12T07:33:34.572Z,19.00
2018-04-12T07:36:02.679Z,19.20
2018-04-12T07:38:30.697Z,19.20
2018-04-12T07:40:59.047Z,19.40
2018-04-12T07:43:27.128Z,19.20
2018-04-12T07:45:55.185Z,19.10
2018-04-12T07:48:23.500Z,19.00
2018-04-12T07:50:52.424Z,19.00
2018-04-12T07:53:21.280Z,19.00
2018-04-12T07:55:49.344Z,18.90
2018-04-12T07:58:17.387Z,18.90
2018-04-12T08:00:45.456Z,19.00
2018-04-12T08:03:13.524Z,19.10
2018-04-12T08:05:41.586Z,19.30
2018-04-12T08:08:09.644Z,19.50
2018-04-12T08:10:37.700Z,19.70
2018-04-12T08:13:05.778Z,19.90
2018-04-12T08:15:33.836Z,20.20
2018-04-12T08:18:01.892Z,20.30
2018-04-12T08:20:30.722Z,20.30
2018-04-12T08:22:58.786Z,20.50
2018-04-12T08:25:26.844Z,20.60
2018-04-12T08:27:54.892Z,20.60
2018-04-12T08:30:22.953Z,20.50
2018-04-12T08:32:52.892Z,20.50
2018-04-12T08:35:20.968Z,20.60
2018-04-12T08:37:49.148Z,20.60
2018-04-12T08:40:17.212Z,20.90
2018-04-12T08:42:45.259Z,21.00
2018-04-12T08:45:13.327Z,21.20
2018-04-12T08:47:41.377Z,21.10
2018-04-12T08:50:09.485Z,21.10
2018-04-12T08:52:37.532Z,21.00
2018-04-12T08:55:05.600Z,21.20
2018-04-12T08:57:34.507Z,21.10
2018-04-12T09:00:02.564Z,21.30
2018-04-12T09:02:30.812Z,21.20
2018-04-12T09:04:58.868Z,21.20
2018-04-12T09:07:26.921Z,21.30
2018-04-12T09:09:55.001Z,21.00
2018-04-12T09:12:24.033Z,21.00
2018-04-12T09:14:52.189Z,21.00
2018-04-12T09:17:20.257Z,20.90
2018-04-12T09:19:48.872Z,21.00
2018-04-12T09:22:16.966Z,21.30
2018-04-12T09:24:45.012Z,21.30
2018-04-12T09:27:13.115Z,21.80
2018-04-12T09:29:41.160Z,21.90
2018-04-12T09:32:09.247Z,21.80
2018-04-12T09:34:37.493Z,21.80
2018-04-12T09:37:05.573Z,21.80
2018-04-12T09:39:33.628Z,21.80
2018-04-12T09:42:01.737Z,22.00
2018-04-12T09:44:29.832Z,22.10
2018-04-12T09:46:58.880Z,22.10
2018-04-12T09:49:27.217Z,22.30
2018-04-12T09:51:55.197Z,22.00
2018-04-12T09:54:23.252Z,22.30
2018-04-12T09:56:53.532Z,22.60
2018-04-12T09:59:21.580Z,22.80
2018-04-12T10:02:01.952Z,22.60
2018-04-12T10:04:30.831Z,22.80
2018-04-12T10:07:04.416Z,22.80
2018-04-12T10:09:32.828Z,22.70
2018-04-12T10:12:00.922Z,22.70
2018-04-12T10:14:28.965Z,22.30
2018-04-12T10:16:57.021Z,22.30
2018-04-12T10:19:25.088Z,22.60
2018-04-12T10:21:53.144Z,22.60
2018-04-12T10:24:21.311Z,22.60
2018-04-12T10:26:49.348Z,22.50
2018-04-12T10:29:17.420Z,22.70
2018-04-12T10:31:45.639Z,22.70
2018-04-12T10:34:13.697Z,23.00
2018-04-12T10:36:41.780Z,22.90
2018-04-12T10:39:09.881Z,22.80
2018-04-12T10:41:37.995Z,22.60
2018-04-12T10:44:06.054Z,22.80
2018-04-12T10:46:34.099Z,22.70
2018-04-12T10:49:02.165Z,22.50
2018-04-12T10:51:30.881Z,22.70
2018-04-12T10:53:58.944Z,22.70
2018-04-12T10:56:27.000Z,23.30
2018-04-12T10:58:55.072Z,23.50
2018-04-12T11:01:23.120Z,23.80
2018-04-12T11:03:52.308Z,24.50
2018-04-12T11:06:20.428Z,25.40
2018-04-12T11:08:48.501Z,25.70
2018-04-12T11:11:16.543Z,24.60
2018-04-12T11:13:44.681Z,24.20
2018-04-12T11:16:12.737Z,24.70
2018-04-12T11:18:40.792Z,25.30
2018-04-12T11:21:09.034Z,24.80
2018-04-12T11:23:37.105Z,24.20
2018-04-12T11:26:05.176Z,23.60
2018-04-12T11:28:34.296Z,23.40
2018-04-12T11:31:02.364Z,23.30
2018-04-12T11:33:30.417Z,24.20
2018-04-12T11:35:58.514Z,24.80
2018-04-12T11:38:26.554Z,24.50
2018-04-12T11:40:55.305Z,24.20
2018-04-12T11:43:24.134Z,23.60
2018-04-12T11:45:52.205Z,23.30
2018-04-12T11:48:20.269Z,23.20
2018-04-12T11:50:49.344Z,23.10
2018-04-12T11:53:17.397Z,22.90
2018-04-12T11:55:45.496Z,23.20
2018-04-12T11:58:14.281Z,24.00
2018-04-12T12:00:42.344Z,24.60
2018-04-12T12:03:10.455Z,25.90
2018-04-12T12:05:38.725Z,26.70
2018-04-12T12:08:06.766Z,26.60
2018-04-12T12:10:34.814Z,26.40
2018-04-12T12:13:02.950Z,27.30
2018-04-12T12:15:30.992Z,27.30
2018-04-12T12:18:00.080Z,26.70
2018-04-12T12:20:28.129Z,25.70
2018-04-12T12:22:56.184Z,25.80
2018-04-12T12:25:24.248Z,25.40
2018-04-12T12:27:52.293Z,24.90
2018-04-12T12:30:20.342Z,24.20
2018-04-12T12:32:50.088Z,24.20
2018-04-12T12:35:19.969Z,25.10
2018-04-12T12:37:48.023Z,25.80
2018-04-12T12:40:16.792Z,26.60
2018-04-12T12:42:44.846Z,26.40
2018-04-12T12:45:12.900Z,26.80
2018-04-12T12:47:40.989Z,27.40
2018-04-12T12:50:09.039Z,26.10
2018-04-12T12:52:37.101Z,27.70
2018-04-12T12:55:06.569Z,28.30
2018-04-12T12:57:37.036Z,28.60
2018-04-12T13:00:05.099Z,28.10
2018-04-12T13:02:33.144Z,28.20
2018-04-12T13:05:02.748Z,28.40
2018-04-12T13:07:30.812Z,27.10
2018-04-12T13:09:58.875Z,27.80
2018-04-12T13:12:26.935Z,27.40
2018-04-12T13:14:55.012Z,27.70
2018-04-12T13:17:23.060Z,26.30
2018-04-12T13:19:51.111Z,24.90
2018-04-12T13:22:19.183Z,25.10
2018-04-12T13:24:47.243Z,24.10
2018-04-12T13:27:15.350Z,23.80
2018-04-12T13:29:43.388Z,23.80
2018-04-12T13:32:11.617Z,23.50
2018-04-12T13:34:39.677Z,23.50
2018-04-12T13:37:07.731Z,23.60
2018-04-12T13:39:35.817Z,23.40
2018-04-12T13:42:03.877Z,23.40
2018-04-12T13:44:31.932Z,23.40
2018-04-12T13:46:59.976Z,23.40
2018-04-12T13:49:28.027Z,23.30
2018-04-12T13:51:56.081Z,23.60
2018-04-12T13:54:24.940Z,23.20
2018-04-12T13:56:52.984Z,22.80
2018-04-12T13:59:21.040Z,22.80
2018-04-12T14:01:49.240Z,22.80
2018-04-12T14:04:17.300Z,23.80
2018-04-12T14:06:45.351Z,24.10
2018-04-12T14:09:13.409Z,24.20
2018-04-12T14:11:41.452Z,23.90
2018-04-12T14:14:10.442Z,23.40
2018-04-12T14:16:39.058Z,23.20
2018-04-12T14:19:07.147Z,23.20
2018-04-12T14:21:35.201Z,23.20
2018-04-12T14:24:03.243Z,23.00
2018-04-12T14:26:31.301Z,22.50
2018-04-12T14:28:59.357Z,22.50
2018-04-12T14:31:27.417Z,22.40
2018-04-12T14:33:55.459Z,22.30
2018-04-12T14:36:23.552Z,22.10
2018-04-12T14:38:51.597Z,22.20
2018-04-12T14:41:19.668Z,22.30
2018-04-12T14:43:47.811Z,22.30
2018-04-12T14:46:15.872Z,22.20
2018-04-12T14:48:44.571Z,22.00
2018-04-12T14:51:12.702Z,21.90
2018-04-12T14:53:40.797Z,21.90
2018-04-12T14:56:08.861Z,21.90
2018-04-12T14:58:36.916Z,21.80
2018-04-12T15:01:04.991Z,21.90
2018-04-12T15:03:33.719Z,21.90
2018-04-12T15:06:01.821Z,22.00
2018-04-12T15:08:29.864Z,22.00
2018-04-12T15:10:58.377Z,22.10
2018-04-12T15:13:26.418Z,22.00
2018-04-12T15:15:54.479Z,21.90
2018-04-12T15:18:22.656Z,22.10
2018-04-12T15:20:50.725Z,22.10
2018-04-12T15:23:19.569Z,22.40
2018-04-12T15:25:47.700Z,22.20
2018-04-12T15:28:15.755Z,22.50
2018-04-12T15:30:43.811Z,22.60
2018-04-12T15:33:11.848Z,22.30
2018-04-12T15:35:39.897Z,22.20
2018-04-12T15:38:07.955Z,22.20
2018-04-12T15:40:36.028Z,22.20
2018-04-12T15:43:04.124Z,21.80
2018-04-12T15:45:32.177Z,21.80
2018-04-12T15:48:00.240Z,21.90
2018-04-12T15:50:28.300Z,21.60
2018-04-12T15:52:56.357Z,21.40
2018-04-12T15:55:24.412Z,21.30
2018-04-12T15:57:53.302Z,21.30
2018-04-12T16:00:21.352Z,21.30
2018-04-12T16:02:49.408Z,21.40
2018-04-12T16:05:17.607Z,21.60
2018-04-12T16:07:45.680Z,21.70
2018-04-12T16:10:13.748Z,21.40
2018-04-12T16:12:41.859Z,21.10
2018-04-12T16:15:09.917Z,21.20
2018-04-12T16:17:37.980Z,21.00
2018-04-12T16:20:06.028Z,20.80
2018-04-12T16:22:34.090Z,20.70
2018-04-12T16:25:02.169Z,20.70
2018-04-12T16:27:31.568Z,20.60
2018-04-12T16:29:59.616Z,20.60
2018-04-12T16:32:27.680Z,20.50
2018-04-12T16:34:55.794Z,20.20
2018-04-12T16:37:23.867Z,20.30
2018-04-12T16:39:51.909Z,20.30
2018-04-12T16:42:20.203Z,20.20
2018-04-12T16:44:48.252Z,20.10
2018-04-12T16:47:16.298Z,20.10
2018-04-12T16:49:44.553Z,19.90
2018-04-12T16:52:12.621Z,19.90
2018-04-12T16:54:41.580Z,19.80
2018-04-12T16:57:09.729Z,19.70
2018-04-12T16:59:37.789Z,19.80
2018-04-12T17:02:05.841Z,19.90
2018-04-12T17:04:34.716Z,19.80
2018-04-12T17:07:02.756Z,19.60
2018-04-12T17:09:30.813Z,19.50
2018-04-12T17:12:00.050Z,19.40
2018-04-12T17:14:28.106Z,19.40
2018-04-12T17:16:56.152Z,19.30
2018-04-12T17:19:24.510Z,19.30
2018-04-12T17:21:52.544Z,19.30
2018-04-12T17:24:20.613Z,19.30
2018-04-12T17:26:49.911Z,19.10
2018-04-12T17:29:17.998Z,19.10
2018-04-12T17:31:46.036Z,19.20
2018-04-12T17:34:15.315Z,19.10
2018-04-12T17:36:43.366Z,19.20
2018-04-12T17:39:11.424Z,19.20
2018-04-12T17:41:39.529Z,19.00
2018-04-12T17:44:07.847Z,19.00
2018-04-12T17:46:36.118Z,19.00
2018-04-12T17:49:04.213Z,18.90
2018-04-12T17:51:32.269Z,18.80
2018-04-12T17:54:00.369Z,19.00
2018-04-12T17:56:28.438Z,19.00
2018-04-12T17:58:56.481Z,18.80
2018-04-12T18:01:25.199Z,18.80
2018-04-12T18:03:53.252Z,18.50
2018-04-12T18:06:22.324Z,18.60
2018-04-12T18:08:50.364Z,18.70
2018-04-12T18:11:18.427Z,18.80
2018-04-12T18:13:46.472Z,18.90
2018-04-12T18:16:15.136Z,18.80
2018-04-12T18:18:43.185Z,18.50
2018-04-12T18:21:11.232Z,18.70
2018-04-12T18:23:39.422Z,18.70
2018-04-12T18:26:07.491Z,18.70
2018-04-12T18:28:35.574Z,18.70
2018-04-12T18:31:03.625Z,18.50
2018-04-12T18:33:32.576Z,18.30
2018-04-12T18:36:00.866Z,18.40
2018-04-12T18:38:28.907Z,18.40
2018-04-12T18:40:57.740Z,18.20
2018-04-12T18:43:26.568Z,18.20
2018-04-12T18:45:54.630Z,18.20
2018-04-12T18:48:22.676Z,18.00
2018-04-12T18:50:50.853Z,18.20
2018-04-12T18:53:19.090Z,18.00
2018-04-12T18:55:47.184Z,18.10
2018-04-12T18:58:15.224Z,18.30
2018-04-12T19:00:43.273Z,18.30
2018-04-12T19:03:11.483Z,18.20
2018-04-12T19:05:39.520Z,18.20
2018-04-12T19:08:07.594Z,18.10
2018-04-12T19:10:35.648Z,18.10
2018-04-12T19:13:03.721Z,18.20
2018-04-12T19:15:31.836Z,18.00
2018-04-12T19:17:59.885Z,18.00
2018-04-12T19:20:27.961Z,18.00
2018-04-12T19:22:56.221Z,17.80
2018-04-12T19:25:24.280Z,17.70
2018-04-12T19:27:52.323Z,17.80
2018-04-12T19:30:20.468Z,17.60
2018-04-12T19:32:48.533Z,17.60
2018-04-12T19:35:16.696Z,17.40
2018-04-12T19:37:44.762Z,17.40
2018-04-12T19:40:12.808Z,17.40
2018-04-12T19:42:40.927Z,17.50
2018-04-12T19:45:08.976Z,17.50
2018-04-12T19:47:37.044Z,17.50
2018-04-12T19:50:05.104Z,17.30
2018-04-12T19:52:33.161Z,16.90
2018-04-12T19:55:01.213Z,16.90
2018-04-12T19:57:29.260Z,17.10
2018-04-12T19:59:57.316Z,16.80
2018-04-12T20:02:26.223Z,16.70
2018-04-12T20:04:54.280Z,16.60
2018-04-12T20:07:22.328Z,16.60
2018-04-12T20:09:50.381Z,17.00
2018-04-12T20:12:18.574Z,16.80
2018-04-12T20:14:46.632Z,16.70
2018-04-12T20:17:14.682Z,16.80
2018-04-12T20:19:42.739Z,17.00
2018-04-12T20:22:10.832Z,16.90
2018-04-12T20:24:38.884Z,16.90
2018-04-12T20:27:06.936Z,16.70
2018-04-12T20:29:35.724Z,16.90
2018-04-12T20:32:03.771Z,16.80
2018-04-12T20:34:31.823Z,16.90
2018-04-12T20:36:59.901Z,17.00
2018-04-12T20:39:27.982Z,16.90
2018-04-12T20:41:56.031Z,16.70
2018-04-12T20:44:24.141Z,16.50
2018-04-12T20:46:52.196Z,16.30
2018-04-12T20:49:20.252Z,16.30
2018-04-12T20:51:48.364Z,16.50
2018-04-12T20:54:16.421Z,16.70
2018-04-12T20:56:44.468Z,16.80
2018-04-12T20:59:12.553Z,16.60
2018-04-12T21:01:40.686Z,16.60
2018-04-12T21:04:08.752Z,16.70
2018-04-12T21:06:36.809Z,16.60
2018-04-12T21:09:06.652Z,16.50
2018-04-12T21:11:34.700Z,16.40
2018-04-12T21:14:02.744Z,16.30
2018-04-12T21:16:30.800Z,16.30
2018-04-12T21:18:58.848Z,16.30
2018-04-12T21:21:26.909Z,16.40
2018-04-12T21:23:54.948Z,16.30
2018-04-12T21:26:23.012Z,16.30
2018-04-12T21:28:51.060Z,16.20
2018-04-12T21:31:19.116Z,16.30
2018-04-12T21:33:47.184Z,16.20
2018-04-12T21:36:15.256Z,16.20
2018-04-12T21:38:43.316Z,16.10
2018-04-12T21:41:11.389Z,16.20
2018-04-12T21:43:39.440Z,16.30
2018-04-12T21:46:07.500Z,16.30
2018-04-12T21:48:35.570Z,16.20
2018-04-12T21:51:03.621Z,16.10
2018-04-12T21:53:31.672Z,16.00
2018-04-12T21:55:59.723Z,16.00
2018-04-12T21:58:27.784Z,16.00
2018-04-12T22:00:55.832Z,15.90
2018-04-12T22:03:23.882Z,16.30
2018-04-12T22:05:51.935Z,16.00
2018-04-12T22:08:19.984Z,16.00
2018-04-12T22:10:48.040Z,15.90
2018-04-12T22:13:16.092Z,16.00
2018-04-12T22:15:44.151Z,16.20
2018-04-12T22:18:12.200Z,16.30
2018-04-12T22:20:40.280Z,16.20
2018-04-12T22:23:08.326Z,15.90
2018-04-12T22:25:36.527Z,15.80
2018-04-12T22:28:04.598Z,15.80
2018-04-12T22:30:32.646Z,15.70
2018-04-12T22:33:00.692Z,15.50
2018-04-12T22:35:28.756Z,15.40
2018-04-12T22:37:56.834Z,15.20
2018-04-12T22:40:24.873Z,15.00
2018-04-12T22:42:52.939Z,14.90
2018-04-12T22:45:20.981Z,14.90
2018-04-12T22:47:49.035Z,14.80
2018-04-12T22:50:17.081Z,14.90
2018-04-12T22:52:45.132Z,15.00
2018-04-12T22:55:13.184Z,15.20
2018-04-12T22:57:41.237Z,15.00
2018-04-12T23:00:09.296Z,15.00
2018-04-12T23:02:37.348Z,14.80
2018-04-12T23:05:05.408Z,14.50
2018-04-12T23:07:33.476Z,14.60
2018-04-12T23:10:01.535Z,14.50
2018-04-12T23:12:29.594Z,14.60
2018-04-12T23:14:57.640Z,14.50
2018-04-12T23:17:25.700Z,14.50
2018-04-12T23:19:53.749Z,14.40
2018-04-12T23:22:21.804Z,14.50
2018-04-12T23:24:49.858Z,14.50
2018-04-12T23:27:17.934Z,14.50
2018-04-12T23:29:45.973Z,14.50
2018-04-12T23:32:14.016Z,14.50
2018-04-12T23:34:42.089Z,14.40
2018-04-12T23:37:10.160Z,14.30
2018-04-12T23:39:38.208Z,14.30
2018-04-12T23:42:06.268Z,14.30
2018-04-12T23:44:34.335Z,14.30
2018-04-12T23:47:02.388Z,14.30
2018-04-12T23:49:30.448Z,14.20
2018-04-12T23:51:58.506Z,14.20
2018-04-12T23:54:26.578Z,14.20
2018-04-12T23:56:54.617Z,14.30
2018-04-12T23:59:22.676Z,14.20
